sensor_id;sensor_type;location;lat;lon;timestamp;noise_LAeq;noise_LA_min;noise_LA_max;noise_LA01;noise_LA95
69620;Laerm;57654;51.434;5.984;2023-07-13T00:00:03;31.07;28.83;36.66;;
69620;Laerm;57654;51.434;5.984;2023-07-13T00:00:18;31.49;28.99;37.90;;
69620;Laerm;57654;51.434;5.984;2023-07-13T00:00:29;31.15;28.70;39.53;;
69620;Laerm;57654;51.434;5.984;2023-07-13T00:00:40;31.06;29.02;39.50;;
69620;Laerm;57654;51.434;5.984;2023-07-13T00:00:50;30.96;28.81;40.01;;
69620;Laerm;57654;51.434;5.984;2023-07-13T00:01:01;30.96;28.97;37.21;;
69620;Laerm;57654;51.434;5.984;2023-07-13T00:01:15;31.22;29.28;35.83;;
69620;Laerm;57654;51.434;5.984;2023-07-13T00:01:25;31.25;28.77;38.29;;
69620;Laerm;57654;51.434;5.984;2023-07-13T00:01:36;31.04;28.73;37.46;;
69620;Laerm;57654;51.434;5.984;2023-07-13T00:01:48;31.15;28.90;38.05;;
69620;Laerm;57654;51.434;5.984;2023-07-13T00:02:01;30.89;29.01;36.37;;
69620;Laerm;57654;51.434;5.984;2023-07-13T00:02:12;31.06;29.12;36.71;;
69620;Laerm;57654;51.434;5.984;2023-07-13T00:02:22;30.99;29.17;36.22;;
69620;Laerm;57654;51.434;5.984;2023-07-13T00:02:33;31.00;28.84;37.41;;
69620;Laerm;57654;51.434;5.984;2023-07-13T00:02:43;31.16;29.21;35.47;;
69620;Laerm;57654;51.434;5.984;2023-07-13T00:02:53;31.01;28.98;36.22;;
69620;Laerm;57654;51.434;5.984;2023-07-13T00:03:04;30.72;28.85;33.44;;
69620;Laerm;57654;51.434;5.984;2023-07-13T00:03:14;30.94;28.98;36.62;;
69620;Laerm;57654;51.434;5.984;2023-07-13T00:03:25;30.89;28.84;38.08;;
69620;Laerm;57654;51.434;5.984;2023-07-13T00:03:35;31.76;28.65;44.73;;
69620;Laerm;57654;51.434;5.984;2023-07-13T00:03:45;31.32;28.76;36.89;;
69620;Laerm;57654;51.434;5.984;2023-07-13T00:03:56;30.93;28.83;35.24;;
69620;Laerm;57654;51.434;5.984;2023-07-13T00:04:06;31.12;29.07;39.39;;
69620;Laerm;57654;51.434;5.984;2023-07-13T00:04:18;30.95;28.99;35.69;;
69620;Laerm;57654;51.434;5.984;2023-07-13T00:04:28;30.91;29.08;34.76;;
69620;Laerm;57654;51.434;5.984;2023-07-13T00:04:39;30.88;28.77;34.79;;
69620;Laerm;57654;51.434;5.984;2023-07-13T00:04:49;31.03;28.66;36.78;;
69620;Laerm;57654;51.434;5.984;2023-07-13T00:05:00;31.14;28.65;36.73;;
69620;Laerm;57654;51.434;5.984;2023-07-13T00:05:10;30.92;28.79;35.98;;
69620;Laerm;57654;51.434;5.984;2023-07-13T00:05:22;31.01;29.00;35.80;;
69620;Laerm;57654;51.434;5.984;2023-07-13T00:05:32;30.98;28.82;34.19;;
69620;Laerm;57654;51.434;5.984;2023-07-13T00:05:43;31.28;28.97;37.15;;
69620;Laerm;57654;51.434;5.984;2023-07-13T00:05:59;31.26;28.78;38.10;;
69620;Laerm;57654;51.434;5.984;2023-07-13T00:06:10;30.93;28.84;35.75;;
69620;Laerm;57654;51.434;5.984;2023-07-13T00:06:21;30.86;29.03;35.76;;
69620;Laerm;57654;51.434;5.984;2023-07-13T00:06:31;30.89;28.49;37.74;;
69620;Laerm;57654;51.434;5.984;2023-07-13T00:06:43;31.17;28.89;41.52;;
69620;Laerm;57654;51.434;5.984;2023-07-13T00:06:54;30.90;28.84;36.97;;
69620;Laerm;57654;51.434;5.984;2023-07-13T00:07:05;30.94;29.11;36.23;;
69620;Laerm;57654;51.434;5.984;2023-07-13T00:07:15;30.97;29.02;38.47;;
69620;Laerm;57654;51.434;5.984;2023-07-13T00:07:26;30.93;28.88;40.47;;
69620;Laerm;57654;51.434;5.984;2023-07-13T00:07:36;31.06;28.80;38.26;;
69620;Laerm;57654;51.434;5.984;2023-07-13T00:07:47;30.63;28.50;33.31;;
69620;Laerm;57654;51.434;5.984;2023-07-13T00:07:58;30.88;28.70;36.37;;
69620;Laerm;57654;51.434;5.984;2023-07-13T00:08:08;34.10;29.02;54.53;;
69620;Laerm;57654;51.434;5.984;2023-07-13T00:08:21;30.87;28.82;36.27;;
69620;Laerm;57654;51.434;5.984;2023-07-13T00:08:33;30.98;28.93;34.96;;
69620;Laerm;57654;51.434;5.984;2023-07-13T00:08:44;30.99;28.94;35.56;;
69620;Laerm;57654;51.434;5.984;2023-07-13T00:08:54;31.04;28.98;35.84;;
69620;Laerm;57654;51.434;5.984;2023-07-13T00:09:04;31.10;29.01;36.85;;
69620;Laerm;57654;51.434;5.984;2023-07-13T00:09:15;31.12;29.00;38.38;;
69620;Laerm;57654;51.434;5.984;2023-07-13T00:09:26;31.09;28.97;41.79;;
69620;Laerm;57654;51.434;5.984;2023-07-13T00:09:37;30.97;28.95;35.69;;
69620;Laerm;57654;51.434;5.984;2023-07-13T00:09:48;31.24;29.05;39.71;;
69620;Laerm;57654;51.434;5.984;2023-07-13T00:09:58;30.92;29.29;35.21;;
69620;Laerm;57654;51.434;5.984;2023-07-13T00:10:09;31.15;28.79;37.37;;
69620;Laerm;57654;51.434;5.984;2023-07-13T00:10:19;30.89;29.08;34.46;;
69620;Laerm;57654;51.434;5.984;2023-07-13T00:10:30;30.96;28.96;36.94;;
69620;Laerm;57654;51.434;5.984;2023-07-13T00:10:40;31.00;28.95;36.75;;
69620;Laerm;57654;51.434;5.984;2023-07-13T00:10:51;31.12;29.30;37.39;;
69620;Laerm;57654;51.434;5.984;2023-07-13T00:11:04;30.99;28.99;35.73;;
69620;Laerm;57654;51.434;5.984;2023-07-13T00:11:17;31.22;28.97;38.94;;
69620;Laerm;57654;51.434;5.984;2023-07-13T00:11:28;31.01;28.50;36.32;;
69620;Laerm;57654;51.434;5.984;2023-07-13T00:11:38;30.96;29.05;36.39;;
69620;Laerm;57654;51.434;5.984;2023-07-13T00:11:54;31.11;28.99;36.60;;
69620;Laerm;57654;51.434;5.984;2023-07-13T00:12:04;30.82;28.85;34.55;;
69620;Laerm;57654;51.434;5.984;2023-07-13T00:12:23;31.41;28.87;36.63;;
69620;Laerm;57654;51.434;5.984;2023-07-13T00:12:35;31.09;28.76;39.06;;
69620;Laerm;57654;51.434;5.984;2023-07-13T00:12:46;30.92;29.11;34.19;;
69620;Laerm;57654;51.434;5.984;2023-07-13T00:12:56;31.33;29.09;36.35;;
69620;Laerm;57654;51.434;5.984;2023-07-13T00:13:06;31.32;29.35;37.79;;
69620;Laerm;57654;51.434;5.984;2023-07-13T00:13:17;31.71;29.49;38.56;;
69620;Laerm;57654;51.434;5.984;2023-07-13T00:13:27;31.39;29.24;35.59;;
69620;Laerm;57654;51.434;5.984;2023-07-13T00:13:38;31.98;29.31;37.59;;
69620;Laerm;57654;51.434;5.984;2023-07-13T00:13:49;31.51;29.10;38.57;;
69620;Laerm;57654;51.434;5.984;2023-07-13T00:13:59;31.16;29.02;36.94;;
69620;Laerm;57654;51.434;5.984;2023-07-13T00:14:10;31.08;28.84;39.94;;
69620;Laerm;57654;51.434;5.984;2023-07-13T00:14:21;31.31;28.93;36.89;;
69620;Laerm;57654;51.434;5.984;2023-07-13T00:14:31;30.93;29.12;35.13;;
69620;Laerm;57654;51.434;5.984;2023-07-13T00:14:42;31.18;29.03;37.97;;
69620;Laerm;57654;51.434;5.984;2023-07-13T00:14:52;31.03;28.86;35.50;;
69620;Laerm;57654;51.434;5.984;2023-07-13T00:15:05;31.29;29.05;39.59;;
69620;Laerm;57654;51.434;5.984;2023-07-13T00:15:18;31.19;29.07;37.52;;
69620;Laerm;57654;51.434;5.984;2023-07-13T00:15:32;31.24;29.33;35.46;;
69620;Laerm;57654;51.434;5.984;2023-07-13T00:15:43;31.27;29.00;35.93;;
69620;Laerm;57654;51.434;5.984;2023-07-13T00:15:53;32.06;28.96;41.89;;
69620;Laerm;57654;51.434;5.984;2023-07-13T00:16:07;30.94;29.14;36.79;;
69620;Laerm;57654;51.434;5.984;2023-07-13T00:16:17;31.06;28.99;38.32;;
69620;Laerm;57654;51.434;5.984;2023-07-13T00:16:29;31.12;28.78;39.08;;
69620;Laerm;57654;51.434;5.984;2023-07-13T00:16:39;31.21;28.87;37.06;;
69620;Laerm;57654;51.434;5.984;2023-07-13T00:16:53;31.52;29.25;38.17;;
69620;Laerm;57654;51.434;5.984;2023-07-13T00:17:04;31.86;29.57;36.11;;
69620;Laerm;57654;51.434;5.984;2023-07-13T00:17:14;31.76;29.30;38.51;;
69620;Laerm;57654;51.434;5.984;2023-07-13T00:17:25;31.79;29.75;35.95;;
69620;Laerm;57654;51.434;5.984;2023-07-13T00:17:36;31.90;29.19;40.05;;
69620;Laerm;57654;51.434;5.984;2023-07-13T00:17:52;31.54;29.27;35.80;;
69620;Laerm;57654;51.434;5.984;2023-07-13T00:18:02;31.25;29.10;36.12;;
69620;Laerm;57654;51.434;5.984;2023-07-13T00:18:13;30.95;29.17;35.36;;
69620;Laerm;57654;51.434;5.984;2023-07-13T00:18:23;30.99;28.91;37.10;;
69620;Laerm;57654;51.434;5.984;2023-07-13T00:18:34;31.13;29.09;37.89;;
69620;Laerm;57654;51.434;5.984;2023-07-13T00:18:45;31.22;28.72;35.34;;
69620;Laerm;57654;51.434;5.984;2023-07-13T00:18:55;31.30;29.13;36.03;;
69620;Laerm;57654;51.434;5.984;2023-07-13T00:19:06;31.31;29.20;36.88;;
69620;Laerm;57654;51.434;5.984;2023-07-13T00:19:16;31.49;29.43;38.28;;
69620;Laerm;57654;51.434;5.984;2023-07-13T00:19:26;31.37;29.17;39.70;;
69620;Laerm;57654;51.434;5.984;2023-07-13T00:19:36;32.10;29.25;37.16;;
69620;Laerm;57654;51.434;5.984;2023-07-13T00:19:47;32.70;29.56;37.65;;
69620;Laerm;57654;51.434;5.984;2023-07-13T00:19:58;33.16;30.37;37.26;;
69620;Laerm;57654;51.434;5.984;2023-07-13T00:20:08;33.22;30.02;38.69;;
69620;Laerm;57654;51.434;5.984;2023-07-13T00:20:19;34.03;30.85;37.21;;
69620;Laerm;57654;51.434;5.984;2023-07-13T00:20:31;45.82;33.19;51.61;;
69620;Laerm;57654;51.434;5.984;2023-07-13T00:20:43;52.19;48.72;54.70;;
69620;Laerm;57654;51.434;5.984;2023-07-13T00:20:53;51.46;46.04;56.09;;
69620;Laerm;57654;51.434;5.984;2023-07-13T00:21:04;39.80;32.63;47.58;;
69620;Laerm;57654;51.434;5.984;2023-07-13T00:21:17;32.09;29.04;36.68;;
69620;Laerm;57654;51.434;5.984;2023-07-13T00:21:27;31.27;29.08;38.01;;
69620;Laerm;57654;51.434;5.984;2023-07-13T00:21:38;30.92;28.95;35.58;;
69620;Laerm;57654;51.434;5.984;2023-07-13T00:21:49;30.84;28.94;34.58;;
69620;Laerm;57654;51.434;5.984;2023-07-13T00:21:59;30.95;28.90;36.55;;
69620;Laerm;57654;51.434;5.984;2023-07-13T00:22:09;31.08;28.85;36.66;;
69620;Laerm;57654;51.434;5.984;2023-07-13T00:22:20;31.15;28.93;38.62;;
69620;Laerm;57654;51.434;5.984;2023-07-13T00:22:30;31.05;28.62;39.30;;
69620;Laerm;57654;51.434;5.984;2023-07-13T00:22:40;30.80;28.78;35.09;;
69620;Laerm;57654;51.434;5.984;2023-07-13T00:22:51;30.84;28.68;34.97;;
69620;Laerm;57654;51.434;5.984;2023-07-13T00:23:03;30.99;28.87;37.42;;
69620;Laerm;57654;51.434;5.984;2023-07-13T00:23:13;31.08;28.95;35.41;;
69620;Laerm;57654;51.434;5.984;2023-07-13T00:23:24;31.06;29.08;34.92;;
69620;Laerm;57654;51.434;5.984;2023-07-13T00:23:35;30.86;28.96;37.18;;
69620;Laerm;57654;51.434;5.984;2023-07-13T00:23:46;30.83;28.89;36.28;;
69620;Laerm;57654;51.434;5.984;2023-07-13T00:23:56;30.68;28.95;35.22;;
69620;Laerm;57654;51.434;5.984;2023-07-13T00:24:07;31.01;28.82;35.57;;
69620;Laerm;57654;51.434;5.984;2023-07-13T00:24:19;30.99;28.87;36.35;;
69620;Laerm;57654;51.434;5.984;2023-07-13T00:24:33;30.92;28.94;38.17;;
69620;Laerm;57654;51.434;5.984;2023-07-13T00:24:44;30.90;28.83;35.77;;
69620;Laerm;57654;51.434;5.984;2023-07-13T00:24:55;31.08;29.10;34.91;;
69620;Laerm;57654;51.434;5.984;2023-07-13T00:25:10;31.18;28.97;39.85;;
69620;Laerm;57654;51.434;5.984;2023-07-13T00:25:21;31.44;29.10;38.88;;
69620;Laerm;57654;51.434;5.984;2023-07-13T00:25:34;30.91;29.05;36.22;;
69620;Laerm;57654;51.434;5.984;2023-07-13T00:25:45;31.09;28.95;37.51;;
69620;Laerm;57654;51.434;5.984;2023-07-13T00:25:55;31.13;28.71;37.01;;
69620;Laerm;57654;51.434;5.984;2023-07-13T00:26:07;31.30;28.50;40.68;;
69620;Laerm;57654;51.434;5.984;2023-07-13T00:26:18;30.81;28.99;36.10;;
69620;Laerm;57654;51.434;5.984;2023-07-13T00:26:28;30.85;29.10;35.53;;
69620;Laerm;57654;51.434;5.984;2023-07-13T00:26:38;31.21;28.87;40.52;;
69620;Laerm;57654;51.434;5.984;2023-07-13T00:26:49;31.10;28.87;42.67;;
69620;Laerm;57654;51.434;5.984;2023-07-13T00:26:59;31.13;28.76;37.95;;
69620;Laerm;57654;51.434;5.984;2023-07-13T00:27:10;30.99;28.94;36.77;;
69620;Laerm;57654;51.434;5.984;2023-07-13T00:27:20;31.05;29.26;37.90;;
69620;Laerm;57654;51.434;5.984;2023-07-13T00:27:31;31.04;29.11;37.96;;
69620;Laerm;57654;51.434;5.984;2023-07-13T00:27:42;31.23;28.73;35.68;;
69620;Laerm;57654;51.434;5.984;2023-07-13T00:27:53;31.04;29.02;36.24;;
69620;Laerm;57654;51.434;5.984;2023-07-13T00:28:03;30.94;29.12;34.21;;
69620;Laerm;57654;51.434;5.984;2023-07-13T00:28:13;30.99;29.03;36.30;;
69620;Laerm;57654;51.434;5.984;2023-07-13T00:28:24;31.07;29.28;34.76;;
69620;Laerm;57654;51.434;5.984;2023-07-13T00:28:34;31.82;29.40;36.70;;
69620;Laerm;57654;51.434;5.984;2023-07-13T00:28:44;31.75;29.44;35.57;;
69620;Laerm;57654;51.434;5.984;2023-07-13T00:28:55;31.99;29.16;35.83;;
69620;Laerm;57654;51.434;5.984;2023-07-13T00:29:05;32.04;29.06;38.31;;
69620;Laerm;57654;51.434;5.984;2023-07-13T00:29:19;31.41;28.96;36.63;;
69620;Laerm;57654;51.434;5.984;2023-07-13T00:29:31;31.73;29.14;37.13;;
69620;Laerm;57654;51.434;5.984;2023-07-13T00:29:43;31.15;28.76;39.13;;
69620;Laerm;57654;51.434;5.984;2023-07-13T00:29:54;34.09;29.07;52.59;;
69620;Laerm;57654;51.434;5.984;2023-07-13T00:30:05;31.29;29.29;38.12;;
69620;Laerm;57654;51.434;5.984;2023-07-13T00:30:16;31.49;29.05;38.50;;
69620;Laerm;57654;51.434;5.984;2023-07-13T00:30:26;31.44;28.95;38.83;;
69620;Laerm;57654;51.434;5.984;2023-07-13T00:30:37;32.01;29.39;40.80;;
69620;Laerm;57654;51.434;5.984;2023-07-13T00:30:47;32.14;29.15;37.31;;
69620;Laerm;57654;51.434;5.984;2023-07-13T00:30:57;32.04;29.15;36.75;;
69620;Laerm;57654;51.434;5.984;2023-07-13T00:31:09;31.76;29.16;36.48;;
69620;Laerm;57654;51.434;5.984;2023-07-13T00:31:19;31.69;28.97;37.11;;
69620;Laerm;57654;51.434;5.984;2023-07-13T00:31:30;31.35;29.00;35.34;;
69620;Laerm;57654;51.434;5.984;2023-07-13T00:31:40;32.03;29.43;37.35;;
69620;Laerm;57654;51.434;5.984;2023-07-13T00:31:50;31.72;29.23;36.03;;
69620;Laerm;57654;51.434;5.984;2023-07-13T00:32:02;31.44;29.27;36.82;;
69620;Laerm;57654;51.434;5.984;2023-07-13T00:32:12;31.66;29.33;35.13;;
69620;Laerm;57654;51.434;5.984;2023-07-13T00:32:23;31.61;29.42;36.36;;
69620;Laerm;57654;51.434;5.984;2023-07-13T00:32:35;31.80;29.13;36.47;;
69620;Laerm;57654;51.434;5.984;2023-07-13T00:32:45;31.58;29.20;36.55;;
69620;Laerm;57654;51.434;5.984;2023-07-13T00:32:56;31.88;28.85;35.99;;
69620;Laerm;57654;51.434;5.984;2023-07-13T00:33:06;32.07;29.15;36.18;;
69620;Laerm;57654;51.434;5.984;2023-07-13T00:33:17;32.01;28.91;40.03;;
69620;Laerm;57654;51.434;5.984;2023-07-13T00:33:28;31.85;28.89;36.69;;
69620;Laerm;57654;51.434;5.984;2023-07-13T00:33:38;31.67;28.91;36.16;;
69620;Laerm;57654;51.434;5.984;2023-07-13T00:33:49;31.72;28.93;39.79;;
69620;Laerm;57654;51.434;5.984;2023-07-13T00:34:00;31.74;29.41;38.00;;
69620;Laerm;57654;51.434;5.984;2023-07-13T00:34:10;31.80;29.29;37.09;;
69620;Laerm;57654;51.434;5.984;2023-07-13T00:34:20;32.24;29.63;35.31;;
69620;Laerm;57654;51.434;5.984;2023-07-13T00:34:31;32.23;29.62;36.14;;
69620;Laerm;57654;51.434;5.984;2023-07-13T00:34:41;32.30;29.86;37.01;;
69620;Laerm;57654;51.434;5.984;2023-07-13T00:34:52;32.15;29.78;36.71;;
69620;Laerm;57654;51.434;5.984;2023-07-13T00:35:02;32.57;29.78;35.27;;
69620;Laerm;57654;51.434;5.984;2023-07-13T00:35:14;32.68;29.54;37.01;;
69620;Laerm;57654;51.434;5.984;2023-07-13T00:35:25;32.25;29.63;38.43;;
69620;Laerm;57654;51.434;5.984;2023-07-13T00:35:35;31.40;28.77;37.57;;
69620;Laerm;57654;51.434;5.984;2023-07-13T00:35:46;31.57;28.90;36.26;;
69620;Laerm;57654;51.434;5.984;2023-07-13T00:35:56;31.53;28.95;35.82;;
69620;Laerm;57654;51.434;5.984;2023-07-13T00:36:07;31.52;29.00;34.93;;
69620;Laerm;57654;51.434;5.984;2023-07-13T00:36:19;31.82;29.35;36.59;;
69620;Laerm;57654;51.434;5.984;2023-07-13T00:36:30;31.89;29.00;37.84;;
69620;Laerm;57654;51.434;5.984;2023-07-13T00:36:41;31.48;29.07;35.71;;
69620;Laerm;57654;51.434;5.984;2023-07-13T00:36:51;31.60;29.09;36.10;;
69620;Laerm;57654;51.434;5.984;2023-07-13T00:37:01;31.61;29.20;35.13;;
69620;Laerm;57654;51.434;5.984;2023-07-13T00:37:12;31.64;29.25;36.39;;
69620;Laerm;57654;51.434;5.984;2023-07-13T00:37:22;31.53;29.00;36.90;;
69620;Laerm;57654;51.434;5.984;2023-07-13T00:37:32;31.63;29.16;36.45;;
69620;Laerm;57654;51.434;5.984;2023-07-13T00:37:44;31.86;29.34;39.19;;
69620;Laerm;57654;51.434;5.984;2023-07-13T00:37:54;31.54;28.96;36.88;;
69620;Laerm;57654;51.434;5.984;2023-07-13T00:38:05;31.46;29.29;38.54;;
69620;Laerm;57654;51.434;5.984;2023-07-13T00:38:15;31.19;28.96;36.99;;
69620;Laerm;57654;51.434;5.984;2023-07-13T00:38:26;31.18;28.96;37.51;;
69620;Laerm;57654;51.434;5.984;2023-07-13T00:38:36;31.56;28.68;43.96;;
69620;Laerm;57654;51.434;5.984;2023-07-13T00:38:46;31.17;29.03;39.26;;
69620;Laerm;57654;51.434;5.984;2023-07-13T00:38:57;30.78;28.64;38.08;;
69620;Laerm;57654;51.434;5.984;2023-07-13T00:39:07;31.03;29.17;36.20;;
69620;Laerm;57654;51.434;5.984;2023-07-13T00:39:18;31.14;29.02;40.20;;
69620;Laerm;57654;51.434;5.984;2023-07-13T00:39:28;31.17;28.92;37.54;;
69620;Laerm;57654;51.434;5.984;2023-07-13T00:39:38;30.92;29.18;34.72;;
69620;Laerm;57654;51.434;5.984;2023-07-13T00:39:49;31.08;29.13;35.02;;
69620;Laerm;57654;51.434;5.984;2023-07-13T00:39:59;31.12;29.35;37.74;;
69620;Laerm;57654;51.434;5.984;2023-07-13T00:40:10;31.13;29.12;35.40;;
69620;Laerm;57654;51.434;5.984;2023-07-13T00:40:21;31.26;28.97;36.13;;
69620;Laerm;57654;51.434;5.984;2023-07-13T00:40:32;31.23;28.64;35.01;;
69620;Laerm;57654;51.434;5.984;2023-07-13T00:40:42;31.24;28.91;36.80;;
69620;Laerm;57654;51.434;5.984;2023-07-13T00:40:52;31.32;29.35;37.03;;
69620;Laerm;57654;51.434;5.984;2023-07-13T00:41:03;31.56;29.21;38.83;;
69620;Laerm;57654;51.434;5.984;2023-07-13T00:41:14;31.44;29.15;36.48;;
69620;Laerm;57654;51.434;5.984;2023-07-13T00:41:24;31.62;29.30;35.09;;
69620;Laerm;57654;51.434;5.984;2023-07-13T00:41:35;31.97;29.76;36.55;;
69620;Laerm;57654;51.434;5.984;2023-07-13T00:41:46;32.00;30.12;35.74;;
69620;Laerm;57654;51.434;5.984;2023-07-13T00:41:57;32.88;30.40;39.28;;
69620;Laerm;57654;51.434;5.984;2023-07-13T00:42:07;43.85;32.95;51.62;;
69620;Laerm;57654;51.434;5.984;2023-07-13T00:42:17;48.09;44.60;53.06;;
69620;Laerm;57654;51.434;5.984;2023-07-13T00:42:28;45.37;42.68;47.71;;
69620;Laerm;57654;51.434;5.984;2023-07-13T00:42:38;40.12;32.42;45.29;;
69620;Laerm;57654;51.434;5.984;2023-07-13T00:42:51;31.79;29.24;35.82;;
69620;Laerm;57654;51.434;5.984;2023-07-13T00:43:01;31.09;29.17;35.95;;
69620;Laerm;57654;51.434;5.984;2023-07-13T00:43:16;30.93;29.07;35.66;;
69620;Laerm;57654;51.434;5.984;2023-07-13T00:43:27;31.10;29.16;35.42;;
69620;Laerm;57654;51.434;5.984;2023-07-13T00:43:38;31.09;28.42;36.01;;
69620;Laerm;57654;51.434;5.984;2023-07-13T00:43:48;30.96;28.93;34.92;;
69620;Laerm;57654;51.434;5.984;2023-07-13T00:43:59;31.43;29.58;36.09;;
69620;Laerm;57654;51.434;5.984;2023-07-13T00:44:13;31.36;29.13;36.52;;
69620;Laerm;57654;51.434;5.984;2023-07-13T00:44:24;31.26;29.13;35.60;;
69620;Laerm;57654;51.434;5.984;2023-07-13T00:44:34;31.25;28.94;36.79;;
69620;Laerm;57654;51.434;5.984;2023-07-13T00:45:04;31.37;28.97;35.98;;
69620;Laerm;57654;51.434;5.984;2023-07-13T00:46:16;37.75;30.45;45.59;;
69620;Laerm;57654;51.434;5.984;2023-07-13T00:46:28;47.08;42.43;51.30;;
69620;Laerm;57654;51.434;5.984;2023-07-13T00:46:38;43.55;32.35;48.32;;
69620;Laerm;57654;51.434;5.984;2023-07-13T00:46:49;31.92;29.34;36.78;;
69620;Laerm;57654;51.434;5.984;2023-07-13T00:46:59;30.95;28.99;36.20;;
69620;Laerm;57654;51.434;5.984;2023-07-13T00:47:10;30.85;29.19;35.01;;
69620;Laerm;57654;51.434;5.984;2023-07-13T00:47:20;30.88;28.80;37.49;;
69620;Laerm;57654;51.434;5.984;2023-07-13T00:47:30;31.06;28.76;35.97;;
69620;Laerm;57654;51.434;5.984;2023-07-13T00:47:41;31.11;29.09;38.19;;
69620;Laerm;57654;51.434;5.984;2023-07-13T00:47:51;31.17;28.80;40.52;;
69620;Laerm;57654;51.434;5.984;2023-07-13T00:48:01;31.05;29.14;36.23;;
69620;Laerm;57654;51.434;5.984;2023-07-13T00:48:12;31.35;28.99;36.90;;
69620;Laerm;57654;51.434;5.984;2023-07-13T00:48:26;31.21;29.11;36.68;;
69620;Laerm;57654;51.434;5.984;2023-07-13T00:48:37;31.86;28.80;38.07;;
69620;Laerm;57654;51.434;5.984;2023-07-13T00:48:48;31.66;29.00;35.26;;
69620;Laerm;57654;51.434;5.984;2023-07-13T00:49:00;31.30;28.95;35.12;;
69620;Laerm;57654;51.434;5.984;2023-07-13T00:49:16;31.42;29.17;36.07;;
69620;Laerm;57654;51.434;5.984;2023-07-13T00:49:29;31.16;28.81;36.67;;
69620;Laerm;57654;51.434;5.984;2023-07-13T00:49:40;31.19;28.86;36.40;;
69620;Laerm;57654;51.434;5.984;2023-07-13T00:49:51;31.50;29.05;35.49;;
69620;Laerm;57654;51.434;5.984;2023-07-13T00:50:01;31.29;28.67;39.97;;
69620;Laerm;57654;51.434;5.984;2023-07-13T00:50:13;31.30;29.12;39.69;;
69620;Laerm;57654;51.434;5.984;2023-07-13T00:50:24;31.07;28.88;35.54;;
69620;Laerm;57654;51.434;5.984;2023-07-13T00:50:35;31.74;29.28;37.57;;
69620;Laerm;57654;51.434;5.984;2023-07-13T00:50:47;31.11;28.85;37.48;;
69620;Laerm;57654;51.434;5.984;2023-07-13T00:50:58;30.92;28.81;35.41;;
69620;Laerm;57654;51.434;5.984;2023-07-13T00:51:10;31.14;28.88;38.55;;
69620;Laerm;57654;51.434;5.984;2023-07-13T00:51:23;31.47;28.78;36.96;;
69620;Laerm;57654;51.434;5.984;2023-07-13T00:51:44;31.17;29.13;36.76;;
69620;Laerm;57654;51.434;5.984;2023-07-13T00:51:56;31.29;28.90;38.20;;
69620;Laerm;57654;51.434;5.984;2023-07-13T00:52:07;31.42;28.86;36.77;;
69620;Laerm;57654;51.434;5.984;2023-07-13T00:52:19;31.81;28.76;39.76;;
69620;Laerm;57654;51.434;5.984;2023-07-13T00:52:29;31.46;29.20;35.99;;
69620;Laerm;57654;51.434;5.984;2023-07-13T00:52:41;31.65;28.99;35.78;;
69620;Laerm;57654;51.434;5.984;2023-07-13T00:52:53;31.76;29.12;38.56;;
69620;Laerm;57654;51.434;5.984;2023-07-13T00:53:05;31.46;29.16;35.15;;
69620;Laerm;57654;51.434;5.984;2023-07-13T00:53:15;32.09;29.13;36.17;;
69620;Laerm;57654;51.434;5.984;2023-07-13T00:53:26;31.50;29.21;36.60;;
69620;Laerm;57654;51.434;5.984;2023-07-13T00:53:37;31.39;28.79;37.06;;
69620;Laerm;57654;51.434;5.984;2023-07-13T00:53:48;31.10;29.34;35.85;;
69620;Laerm;57654;51.434;5.984;2023-07-13T00:53:59;31.44;29.27;36.75;;
69620;Laerm;57654;51.434;5.984;2023-07-13T00:54:13;31.64;29.04;36.49;;
69620;Laerm;57654;51.434;5.984;2023-07-13T00:54:28;32.29;29.12;35.93;;
69620;Laerm;57654;51.434;5.984;2023-07-13T00:54:41;32.54;29.38;40.68;;
69620;Laerm;57654;51.434;5.984;2023-07-13T00:54:53;32.10;29.32;39.54;;
69620;Laerm;57654;51.434;5.984;2023-07-13T00:55:04;31.88;28.73;35.96;;
69620;Laerm;57654;51.434;5.984;2023-07-13T00:55:15;31.62;29.34;42.62;;
69620;Laerm;57654;51.434;5.984;2023-07-13T00:55:25;32.16;29.26;35.81;;
69620;Laerm;57654;51.434;5.984;2023-07-13T00:55:36;32.26;29.16;38.97;;
69620;Laerm;57654;51.434;5.984;2023-07-13T00:55:48;32.59;29.60;35.90;;
69620;Laerm;57654;51.434;5.984;2023-07-13T00:56:00;32.04;29.58;37.39;;
69620;Laerm;57654;51.434;5.984;2023-07-13T00:56:10;31.15;29.12;35.43;;
69620;Laerm;57654;51.434;5.984;2023-07-13T00:56:21;31.29;29.00;40.31;;
69620;Laerm;57654;51.434;5.984;2023-07-13T00:56:32;30.84;28.83;34.71;;
69620;Laerm;57654;51.434;5.984;2023-07-13T00:56:43;31.11;29.19;35.40;;
69620;Laerm;57654;51.434;5.984;2023-07-13T00:56:55;30.89;28.95;36.58;;
69620;Laerm;57654;51.434;5.984;2023-07-13T00:57:09;31.21;29.02;37.06;;
69620;Laerm;57654;51.434;5.984;2023-07-13T00:57:21;31.08;29.01;36.13;;
69620;Laerm;57654;51.434;5.984;2023-07-13T00:57:31;31.02;29.02;36.26;;
69620;Laerm;57654;51.434;5.984;2023-07-13T00:57:42;30.98;28.94;34.90;;
69620;Laerm;57654;51.434;5.984;2023-07-13T00:57:53;31.17;29.09;35.82;;
69620;Laerm;57654;51.434;5.984;2023-07-13T00:58:03;31.13;28.86;36.81;;
69620;Laerm;57654;51.434;5.984;2023-07-13T00:58:15;31.08;29.19;34.84;;
69620;Laerm;57654;51.434;5.984;2023-07-13T00:58:25;31.60;29.24;41.09;;
69620;Laerm;57654;51.434;5.984;2023-07-13T00:58:37;31.35;29.15;36.97;;
69620;Laerm;57654;51.434;5.984;2023-07-13T00:58:48;31.21;28.81;34.34;;
69620;Laerm;57654;51.434;5.984;2023-07-13T00:58:58;31.30;29.12;35.45;;
69620;Laerm;57654;51.434;5.984;2023-07-13T00:59:09;32.08;28.99;42.73;;
69620;Laerm;57654;51.434;5.984;2023-07-13T00:59:21;32.52;29.12;40.49;;
69620;Laerm;57654;51.434;5.984;2023-07-13T00:59:32;32.42;29.29;35.73;;
69620;Laerm;57654;51.434;5.984;2023-07-13T00:59:45;32.39;29.50;37.34;;
69620;Laerm;57654;51.434;5.984;2023-07-13T00:59:58;31.81;28.77;36.85;;
69620;Laerm;57654;51.434;5.984;2023-07-13T01:00:09;31.85;28.80;35.89;;
69620;Laerm;57654;51.434;5.984;2023-07-13T01:00:22;32.06;29.03;35.59;;
69620;Laerm;57654;51.434;5.984;2023-07-13T01:00:34;32.14;29.74;41.68;;
69620;Laerm;57654;51.434;5.984;2023-07-13T01:00:45;31.70;29.29;36.72;;
69620;Laerm;57654;51.434;5.984;2023-07-13T01:00:56;31.84;29.46;39.71;;
69620;Laerm;57654;51.434;5.984;2023-07-13T01:01:07;31.34;28.94;37.43;;
69620;Laerm;57654;51.434;5.984;2023-07-13T01:01:17;31.64;29.20;42.07;;
69620;Laerm;57654;51.434;5.984;2023-07-13T01:01:27;31.88;29.12;37.03;;
69620;Laerm;57654;51.434;5.984;2023-07-13T01:01:38;32.52;29.21;37.93;;
69620;Laerm;57654;51.434;5.984;2023-07-13T01:01:49;32.55;29.41;36.05;;
69620;Laerm;57654;51.434;5.984;2023-07-13T01:01:59;33.08;29.50;38.44;;
69620;Laerm;57654;51.434;5.984;2023-07-13T01:02:11;31.98;28.79;37.34;;
69620;Laerm;57654;51.434;5.984;2023-07-13T01:02:21;31.24;29.05;36.27;;
69620;Laerm;57654;51.434;5.984;2023-07-13T01:02:32;31.73;29.25;41.94;;
69620;Laerm;57654;51.434;5.984;2023-07-13T01:02:44;31.68;29.15;35.73;;
69620;Laerm;57654;51.434;5.984;2023-07-13T01:02:55;31.90;29.29;35.57;;
69620;Laerm;57654;51.434;5.984;2023-07-13T01:03:05;31.80;29.32;36.68;;
69620;Laerm;57654;51.434;5.984;2023-07-13T01:03:15;31.96;29.25;37.59;;
69620;Laerm;57654;51.434;5.984;2023-07-13T01:03:26;31.63;29.24;35.85;;